sensor_id;sensor_type;location;lat;lon;timestamp;P1;durP1;ratioP1;P2;durP2;ratioP2
80400;SDS011;69727;53.132;8.230;2023-04-28T00:02:12;10.63;;;5.53;;
80400;SDS011;69727;53.132;8.230;2023-04-28T00:04:37;14.57;;;6.13;;
80400;SDS011;69727;53.132;8.230;2023-04-28T00:07:03;12.87;;;6.10;;
80400;SDS011;69727;53.132;8.230;2023-04-28T00:09:28;12.15;;;6.30;;
80400;SDS011;69727;53.132;8.230;2023-04-28T00:11:54;13.15;;;6.05;;
80400;SDS011;69727;53.132;8.230;2023-04-28T00:14:19;12.20;;;6.30;;
80400;SDS011;69727;53.132;8.230;2023-04-28T00:16:44;11.40;;;6.23;;
80400;SDS011;69727;53.132;8.230;2023-04-28T00:19:10;14.87;;;6.40;;
80400;SDS011;69727;53.132;8.230;2023-04-28T00:21:35;11.07;;;5.90;;
80400;SDS011;69727;53.132;8.230;2023-04-28T00:24:01;12.43;;;5.67;;
80400;SDS011;69727;53.132;8.230;2023-04-28T00:26:26;13.67;;;6.73;;
80400;SDS011;69727;53.132;8.230;2023-04-28T00:28:51;13.23;;;6.73;;
80400;SDS011;69727;53.132;8.230;2023-04-28T00:31:17;12.90;;;6.07;;
80400;SDS011;69727;53.132;8.230;2023-04-28T00:33:42;13.00;;;6.13;;
80400;SDS011;69727;53.132;8.230;2023-04-28T00:36:08;13.43;;;6.40;;
80400;SDS011;69727;53.132;8.230;2023-04-28T00:38:35;15.30;;;7.25;;
80400;SDS011;69727;53.132;8.230;2023-04-28T00:41:00;13.68;;;6.63;;
80400;SDS011;69727;53.132;8.230;2023-04-28T00:43:26;10.98;;;6.05;;
80400;SDS011;69727;53.132;8.230;2023-04-28T00:45:51;12.88;;;6.95;;
80400;SDS011;69727;53.132;8.230;2023-04-28T00:48:17;14.50;;;6.88;;
80400;SDS011;69727;53.132;8.230;2023-04-28T00:50:43;17.35;;;8.45;;
80400;SDS011;69727;53.132;8.230;2023-04-28T00:53:10;15.30;;;8.05;;
80400;SDS011;69727;53.132;8.230;2023-04-28T00:55:36;17.88;;;8.25;;
80400;SDS011;69727;53.132;8.230;2023-04-28T00:58:02;14.95;;;8.00;;
80400;SDS011;69727;53.132;8.230;2023-04-28T01:00:28;17.85;;;9.23;;
80400;SDS011;69727;53.132;8.230;2023-04-28T01:02:54;17.00;;;8.52;;
80400;SDS011;69727;53.132;8.230;2023-04-28T01:05:21;17.27;;;7.35;;
80400;SDS011;69727;53.132;8.230;2023-04-28T01:07:49;16.85;;;7.80;;
80400;SDS011;69727;53.132;8.230;2023-04-28T01:10:14;17.20;;;8.00;;
80400;SDS011;69727;53.132;8.230;2023-04-28T01:12:40;17.10;;;8.33;;
80400;SDS011;69727;53.132;8.230;2023-04-28T01:15:05;16.63;;;8.60;;
80400;SDS011;69727;53.132;8.230;2023-04-28T01:17:34;15.77;;;7.57;;
80400;SDS011;69727;53.132;8.230;2023-04-28T01:19:59;18.95;;;8.57;;
80400;SDS011;69727;53.132;8.230;2023-04-28T01:22:25;19.43;;;7.97;;
80400;SDS011;69727;53.132;8.230;2023-04-28T01:24:50;18.03;;;7.70;;
80400;SDS011;69727;53.132;8.230;2023-04-28T01:27:15;14.30;;;7.30;;
80400;SDS011;69727;53.132;8.230;2023-04-28T01:29:41;15.85;;;7.85;;
80400;SDS011;69727;53.132;8.230;2023-04-28T01:32:06;17.83;;;9.17;;
80400;SDS011;69727;53.132;8.230;2023-04-28T01:34:32;14.67;;;7.57;;
80400;SDS011;69727;53.132;8.230;2023-04-28T01:36:57;18.00;;;7.73;;
80400;SDS011;69727;53.132;8.230;2023-04-28T01:39:22;15.07;;;7.23;;
80400;SDS011;69727;53.132;8.230;2023-04-28T01:41:48;16.90;;;8.27;;
80400;SDS011;69727;53.132;8.230;2023-04-28T01:44:13;15.73;;;7.67;;
80400;SDS011;69727;53.132;8.230;2023-04-28T01:46:38;17.88;;;7.40;;
80400;SDS011;69727;53.132;8.230;2023-04-28T01:49:04;17.67;;;8.65;;
80400;SDS011;69727;53.132;8.230;2023-04-28T01:51:29;18.02;;;8.07;;
80400;SDS011;69727;53.132;8.230;2023-04-28T01:53:55;16.05;;;7.72;;
80400;SDS011;69727;53.132;8.230;2023-04-28T01:56:21;21.15;;;8.88;;
80400;SDS011;69727;53.132;8.230;2023-04-28T01:58:46;19.70;;;8.63;;
80400;SDS011;69727;53.132;8.230;2023-04-28T02:01:11;17.20;;;7.93;;
80400;SDS011;69727;53.132;8.230;2023-04-28T02:03:37;17.23;;;8.23;;
80400;SDS011;69727;53.132;8.230;2023-04-28T02:06:02;17.80;;;8.10;;
80400;SDS011;69727;53.132;8.230;2023-04-28T02:08:28;15.82;;;8.05;;
80400;SDS011;69727;53.132;8.230;2023-04-28T02:10:54;19.83;;;8.93;;
80400;SDS011;69727;53.132;8.230;2023-04-28T02:13:21;15.63;;;7.03;;
80400;SDS011;69727;53.132;8.230;2023-04-28T02:15:47;18.67;;;8.32;;
80400;SDS011;69727;53.132;8.230;2023-04-28T02:18:12;17.00;;;8.50;;
80400;SDS011;69727;53.132;8.230;2023-04-28T02:20:37;24.97;;;8.80;;
80400;SDS011;69727;53.132;8.230;2023-04-28T02:23:03;20.92;;;9.50;;
80400;SDS011;69727;53.132;8.230;2023-04-28T02:25:28;18.40;;;8.32;;
80400;SDS011;69727;53.132;8.230;2023-04-28T02:27:54;21.48;;;8.65;;
80400;SDS011;69727;53.132;8.230;2023-04-28T02:30:19;19.57;;;9.17;;
80400;SDS011;69727;53.132;8.230;2023-04-28T02:32:44;20.45;;;10.07;;
80400;SDS011;69727;53.132;8.230;2023-04-28T02:35:10;19.60;;;8.97;;
80400;SDS011;69727;53.132;8.230;2023-04-28T02:37:35;20.00;;;9.30;;
80400;SDS011;69727;53.132;8.230;2023-04-28T02:40:01;23.40;;;9.67;;
80400;SDS011;69727;53.132;8.230;2023-04-28T02:42:26;17.92;;;9.35;;
80400;SDS011;69727;53.132;8.230;2023-04-28T02:44:51;19.87;;;9.83;;
80400;SDS011;69727;53.132;8.230;2023-04-28T02:47:17;22.80;;;9.60;;
80400;SDS011;69727;53.132;8.230;2023-04-28T02:49:42;22.87;;;10.63;;
80400;SDS011;69727;53.132;8.230;2023-04-28T02:52:07;22.48;;;9.60;;
80400;SDS011;69727;53.132;8.230;2023-04-28T02:54:33;19.80;;;9.20;;
80400;SDS011;69727;53.132;8.230;2023-04-28T02:57:00;17.35;;;8.57;;
80400;SDS011;69727;53.132;8.230;2023-04-28T02:59:27;18.98;;;9.13;;
80400;SDS011;69727;53.132;8.230;2023-04-28T03:01:53;21.10;;;8.98;;
80400;SDS011;69727;53.132;8.230;2023-04-28T03:04:18;17.87;;;8.53;;
80400;SDS011;69727;53.132;8.230;2023-04-28T03:06:44;17.20;;;8.80;;
80400;SDS011;69727;53.132;8.230;2023-04-28T03:09:09;20.85;;;9.27;;
80400;SDS011;69727;53.132;8.230;2023-04-28T03:11:35;20.30;;;9.48;;
80400;SDS011;69727;53.132;8.230;2023-04-28T03:14:01;22.70;;;9.60;;
80400;SDS011;69727;53.132;8.230;2023-04-28T03:16:26;21.80;;;9.23;;
80400;SDS011;69727;53.132;8.230;2023-04-28T03:18:51;20.60;;;9.47;;
80400;SDS011;69727;53.132;8.230;2023-04-28T03:21:17;17.77;;;8.93;;
80400;SDS011;69727;53.132;8.230;2023-04-28T03:23:42;17.13;;;7.57;;
80400;SDS011;69727;53.132;8.230;2023-04-28T03:26:07;18.70;;;8.10;;
80400;SDS011;69727;53.132;8.230;2023-04-28T03:28:33;22.00;;;8.50;;
80400;SDS011;69727;53.132;8.230;2023-04-28T03:30:58;19.60;;;8.90;;
80400;SDS011;69727;53.132;8.230;2023-04-28T03:33:24;19.30;;;8.07;;
80400;SDS011;69727;53.132;8.230;2023-04-28T03:35:49;18.30;;;8.52;;
80400;SDS011;69727;53.132;8.230;2023-04-28T03:38:14;18.93;;;8.23;;
80400;SDS011;69727;53.132;8.230;2023-04-28T03:40:40;19.92;;;8.52;;
80400;SDS011;69727;53.132;8.230;2023-04-28T03:43:05;16.50;;;7.47;;
80400;SDS011;69727;53.132;8.230;2023-04-28T03:45:31;17.40;;;8.32;;
80400;SDS011;69727;53.132;8.230;2023-04-28T03:47:56;18.85;;;8.23;;
80400;SDS011;69727;53.132;8.230;2023-04-28T03:50:22;21.02;;;8.77;;
80400;SDS011;69727;53.132;8.230;2023-04-28T03:52:47;17.23;;;7.23;;
80400;SDS011;69727;53.132;8.230;2023-04-28T03:55:12;21.27;;;9.13;;
80400;SDS011;69727;53.132;8.230;2023-04-28T03:57:38;17.42;;;8.93;;
80400;SDS011;69727;53.132;8.230;2023-04-28T04:00:03;18.77;;;8.73;;
80400;SDS011;69727;53.132;8.230;2023-04-28T04:02:29;16.35;;;8.45;;
80400;SDS011;69727;53.132;8.230;2023-04-28T04:04:55;16.23;;;7.67;;
80400;SDS011;69727;53.132;8.230;2023-04-28T04:07:21;16.17;;;7.80;;
80400;SDS011;69727;53.132;8.230;2023-04-28T04:09:47;15.65;;;7.75;;
80400;SDS011;69727;53.132;8.230;2023-04-28T04:12:13;18.23;;;7.78;;
80400;SDS011;69727;53.132;8.230;2023-04-28T04:14:38;17.80;;;8.25;;
80400;SDS011;69727;53.132;8.230;2023-04-28T04:17:03;14.53;;;7.17;;
80400;SDS011;69727;53.132;8.230;2023-04-28T04:19:29;17.33;;;8.93;;
80400;SDS011;69727;53.132;8.230;2023-04-28T04:21:54;20.10;;;8.50;;
80400;SDS011;69727;53.132;8.230;2023-04-28T04:24:20;17.13;;;8.07;;
80400;SDS011;69727;53.132;8.230;2023-04-28T04:26:45;21.30;;;8.67;;
80400;SDS011;69727;53.132;8.230;2023-04-28T04:29:11;16.97;;;8.30;;
80400;SDS011;69727;53.132;8.230;2023-04-28T04:31:36;17.43;;;7.50;;
80400;SDS011;69727;53.132;8.230;2023-04-28T04:34:02;16.73;;;7.93;;
80400;SDS011;69727;53.132;8.230;2023-04-28T04:36:27;16.63;;;8.03;;
80400;SDS011;69727;53.132;8.230;2023-04-28T04:38:52;19.07;;;7.63;;
80400;SDS011;69727;53.132;8.230;2023-04-28T04:41:18;20.87;;;7.87;;
80400;SDS011;69727;53.132;8.230;2023-04-28T04:43:46;16.90;;;7.57;;
80400;SDS011;69727;53.132;8.230;2023-04-28T04:46:12;18.13;;;7.82;;
80400;SDS011;69727;53.132;8.230;2023-04-28T04:48:38;15.52;;;7.22;;
80400;SDS011;69727;53.132;8.230;2023-04-28T04:51:03;15.93;;;7.82;;
80400;SDS011;69727;53.132;8.230;2023-04-28T04:53:28;15.00;;;7.33;;
80400;SDS011;69727;53.132;8.230;2023-04-28T04:55:54;15.30;;;7.43;;
80400;SDS011;69727;53.132;8.230;2023-04-28T04:58:19;18.23;;;8.30;;
80400;SDS011;69727;53.132;8.230;2023-04-28T05:00:45;15.65;;;7.30;;
80400;SDS011;69727;53.132;8.230;2023-04-28T05:03:10;20.53;;;8.50;;
80400;SDS011;69727;53.132;8.230;2023-04-28T05:05:36;13.75;;;6.38;;
80400;SDS011;69727;53.132;8.230;2023-04-28T05:08:01;15.03;;;7.17;;
80400;SDS011;69727;53.132;8.230;2023-04-28T05:10:27;18.05;;;8.57;;
80400;SDS011;69727;53.132;8.230;2023-04-28T05:12:53;18.45;;;8.00;;
80400;SDS011;69727;53.132;8.230;2023-04-28T05:15:18;14.97;;;7.00;;
80400;SDS011;69727;53.132;8.230;2023-04-28T05:17:44;17.93;;;7.00;;
80400;SDS011;69727;53.132;8.230;2023-04-28T05:20:09;13.80;;;6.47;;
80400;SDS011;69727;53.132;8.230;2023-04-28T05:22:35;14.40;;;6.88;;
80400;SDS011;69727;53.132;8.230;2023-04-28T05:25:00;14.07;;;6.37;;
80400;SDS011;69727;53.132;8.230;2023-04-28T05:27:25;15.23;;;6.47;;
80400;SDS011;69727;53.132;8.230;2023-04-28T05:29:51;13.30;;;6.45;;
80400;SDS011;69727;53.132;8.230;2023-04-28T05:32:17;17.60;;;7.38;;
80400;SDS011;69727;53.132;8.230;2023-04-28T05:34:42;12.45;;;6.53;;
80400;SDS011;69727;53.132;8.230;2023-04-28T05:37:07;15.88;;;7.38;;
80400;SDS011;69727;53.132;8.230;2023-04-28T05:39:33;14.37;;;6.63;;
80400;SDS011;69727;53.132;8.230;2023-04-28T05:41:58;13.00;;;6.03;;
80400;SDS011;69727;53.132;8.230;2023-04-28T05:44:23;16.60;;;6.50;;
80400;SDS011;69727;53.132;8.230;2023-04-28T05:46:49;15.80;;;6.38;;
80400;SDS011;69727;53.132;8.230;2023-04-28T05:49:15;16.00;;;5.82;;
80400;SDS011;69727;53.132;8.230;2023-04-28T05:51:40;14.65;;;6.47;;
80400;SDS011;69727;53.132;8.230;2023-04-28T05:54:06;11.43;;;5.47;;
80400;SDS011;69727;53.132;8.230;2023-04-28T05:56:32;14.25;;;6.22;;
80400;SDS011;69727;53.132;8.230;2023-04-28T05:58:57;12.57;;;6.10;;
80400;SDS011;69727;53.132;8.230;2023-04-28T06:01:24;12.75;;;5.68;;
80400;SDS011;69727;53.132;8.230;2023-04-28T06:03:50;12.73;;;6.07;;
80400;SDS011;69727;53.132;8.230;2023-04-28T06:06:17;11.48;;;5.28;;
80400;SDS011;69727;53.132;8.230;2023-04-28T06:08:42;12.85;;;5.47;;
80400;SDS011;69727;53.132;8.230;2023-04-28T06:11:07;11.98;;;5.65;;
80400;SDS011;69727;53.132;8.230;2023-04-28T06:13:33;11.67;;;5.33;;
80400;SDS011;69727;53.132;8.230;2023-04-28T06:15:58;13.17;;;6.20;;
80400;SDS011;69727;53.132;8.230;2023-04-28T06:18:23;13.13;;;5.50;;
80400;SDS011;69727;53.132;8.230;2023-04-28T06:20:49;9.85;;;5.05;;
80400;SDS011;69727;53.132;8.230;2023-04-28T06:23:15;18.60;;;5.23;;
80400;SDS011;69727;53.132;8.230;2023-04-28T06:25:40;12.23;;;5.50;;
80400;SDS011;69727;53.132;8.230;2023-04-28T06:28:05;11.37;;;4.80;;
80400;SDS011;69727;53.132;8.230;2023-04-28T06:30:32;11.63;;;5.22;;
80400;SDS011;69727;53.132;8.230;2023-04-28T06:32:58;10.80;;;4.50;;
80400;SDS011;69727;53.132;8.230;2023-04-28T06:35:24;10.18;;;5.28;;
80400;SDS011;69727;53.132;8.230;2023-04-28T06:37:49;15.45;;;5.60;;
80400;SDS011;69727;53.132;8.230;2023-04-28T06:40:15;12.83;;;5.07;;
80400;SDS011;69727;53.132;8.230;2023-04-28T06:42:40;11.82;;;4.93;;
80400;SDS011;69727;53.132;8.230;2023-04-28T06:45:06;9.57;;;5.10;;
80400;SDS011;69727;53.132;8.230;2023-04-28T06:47:32;10.05;;;4.63;;
80400;SDS011;69727;53.132;8.230;2023-04-28T06:49:58;10.88;;;4.85;;
80400;SDS011;69727;53.132;8.230;2023-04-28T06:52:23;12.13;;;4.77;;
80400;SDS011;69727;53.132;8.230;2023-04-28T06:54:48;10.70;;;5.33;;
80400;SDS011;69727;53.132;8.230;2023-04-28T06:57:14;13.48;;;6.60;;
80400;SDS011;69727;53.132;8.230;2023-04-28T06:59:39;28.30;;;13.13;;
80400;SDS011;69727;53.132;8.230;2023-04-28T07:02:07;8.50;;;4.43;;
80400;SDS011;69727;53.132;8.230;2023-04-28T07:04:33;13.55;;;5.28;;
80400;SDS011;69727;53.132;8.230;2023-04-28T07:06:58;12.73;;;5.27;;
80400;SDS011;69727;53.132;8.230;2023-04-28T07:09:24;8.98;;;4.70;;
80400;SDS011;69727;53.132;8.230;2023-04-28T07:11:49;9.70;;;4.90;;
80400;SDS011;69727;53.132;8.230;2023-04-28T07:14:15;8.77;;;4.65;;
80400;SDS011;69727;53.132;8.230;2023-04-28T07:16:40;9.53;;;4.87;;
80400;SDS011;69727;53.132;8.230;2023-04-28T07:19:06;10.73;;;4.70;;
80400;SDS011;69727;53.132;8.230;2023-04-28T07:21:31;8.83;;;4.10;;
80400;SDS011;69727;53.132;8.230;2023-04-28T07:23:58;10.43;;;4.35;;
80400;SDS011;69727;53.132;8.230;2023-04-28T07:26:23;9.15;;;4.45;;
80400;SDS011;69727;53.132;8.230;2023-04-28T07:28:49;10.90;;;5.00;;
80400;SDS011;69727;53.132;8.230;2023-04-28T07:31:15;31.98;;;15.43;;
80400;SDS011;69727;53.132;8.230;2023-04-28T07:33:40;12.73;;;6.25;;
80400;SDS011;69727;53.132;8.230;2023-04-28T07:36:06;8.77;;;4.50;;
80400;SDS011;69727;53.132;8.230;2023-04-28T07:38:34;8.48;;;4.68;;
80400;SDS011;69727;53.132;8.230;2023-04-28T07:43:27;8.48;;;4.30;;
80400;SDS011;69727;53.132;8.230;2023-04-28T07:45:53;8.05;;;4.10;;
80400;SDS011;69727;53.132;8.230;2023-04-28T07:48:18;9.30;;;3.88;;
80400;SDS011;69727;53.132;8.230;2023-04-28T07:50:43;12.60;;;5.13;;
80400;SDS011;69727;53.132;8.230;2023-04-28T07:53:09;7.93;;;3.80;;
80400;SDS011;69727;53.132;8.230;2023-04-28T07:55:34;9.38;;;3.78;;
80400;SDS011;69727;53.132;8.230;2023-04-28T07:58:00;7.65;;;3.63;;
80400;SDS011;69727;53.132;8.230;2023-04-28T08:00:26;10.30;;;3.88;;
80400;SDS011;69727;53.132;8.230;2023-04-28T08:02:51;10.20;;;4.38;;
80400;SDS011;69727;53.132;8.230;2023-04-28T08:05:17;7.72;;;3.92;;
80400;SDS011;69727;53.132;8.230;2023-04-28T08:07:42;9.82;;;4.25;;
80400;SDS011;69727;53.132;8.230;2023-04-28T08:10:11;7.70;;;3.97;;
80400;SDS011;69727;53.132;8.230;2023-04-28T08:12:37;7.53;;;4.32;;
80400;SDS011;69727;53.132;8.230;2023-04-28T08:15:02;7.85;;;4.38;;
80400;SDS011;69727;53.132;8.230;2023-04-28T08:17:28;7.10;;;3.83;;
80400;SDS011;69727;53.132;8.230;2023-04-28T08:19:54;9.93;;;4.18;;
80400;SDS011;69727;53.132;8.230;2023-04-28T08:22:19;14.57;;;6.28;;
80400;SDS011;69727;53.132;8.230;2023-04-28T08:24:45;12.23;;;4.60;;
80400;SDS011;69727;53.132;8.230;2023-04-28T08:27:10;8.53;;;4.00;;
80400;SDS011;69727;53.132;8.230;2023-04-28T08:29:36;8.88;;;3.80;;
80400;SDS011;69727;53.132;8.230;2023-04-28T08:32:02;9.25;;;4.40;;
80400;SDS011;69727;53.132;8.230;2023-04-28T08:34:28;8.13;;;4.10;;
80400;SDS011;69727;53.132;8.230;2023-04-28T08:36:54;8.80;;;4.23;;
80400;SDS011;69727;53.132;8.230;2023-04-28T08:39:19;8.32;;;4.20;;
80400;SDS011;69727;53.132;8.230;2023-04-28T08:41:46;9.75;;;4.53;;
80400;SDS011;69727;53.132;8.230;2023-04-28T08:44:12;10.43;;;4.50;;
80400;SDS011;69727;53.132;8.230;2023-04-28T08:46:40;10.68;;;4.20;;
80400;SDS011;69727;53.132;8.230;2023-04-28T08:49:11;9.40;;;4.10;;
80400;SDS011;69727;53.132;8.230;2023-04-28T08:51:44;10.05;;;4.35;;
80400;SDS011;69727;53.132;8.230;2023-04-28T08:54:14;7.85;;;3.90;;
80400;SDS011;69727;53.132;8.230;2023-04-28T08:56:41;8.55;;;3.88;;
80400;SDS011;69727;53.132;8.230;2023-04-28T08:59:09;8.00;;;4.13;;
80400;SDS011;69727;53.132;8.230;2023-04-28T09:01:36;9.57;;;4.43;;
80400;SDS011;69727;53.132;8.230;2023-04-28T09:04:02;8.80;;;4.43;;
80400;SDS011;69727;53.132;8.230;2023-04-28T09:06:34;7.50;;;4.07;;
80400;SDS011;69727;53.132;8.230;2023-04-28T09:11:56;9.50;;;4.28;;
80400;SDS011;69727;53.132;8.230;2023-04-28T09:14:27;8.65;;;4.22;;
80400;SDS011;69727;53.132;8.230;2023-04-28T09:16:54;9.27;;;4.30;;
80400;SDS011;69727;53.132;8.230;2023-04-28T09:19:20;10.70;;;5.43;;
80400;SDS011;69727;53.132;8.230;2023-04-28T09:21:51;7.90;;;4.70;;
80400;SDS011;69727;53.132;8.230;2023-04-28T09:24:27;7.82;;;4.80;;
80400;SDS011;69727;53.132;8.230;2023-04-28T09:26:54;9.27;;;4.57;;
80400;SDS011;69727;53.132;8.230;2023-04-28T09:29:20;7.47;;;4.50;;
80400;SDS011;69727;53.132;8.230;2023-04-28T09:31:46;8.87;;;5.03;;
80400;SDS011;69727;53.132;8.230;2023-04-28T09:34:12;9.82;;;5.20;;
80400;SDS011;69727;53.132;8.230;2023-04-28T09:36:37;7.25;;;4.70;;
80400;SDS011;69727;53.132;8.230;2023-04-28T09:39:02;10.43;;;4.65;;
80400;SDS011;69727;53.132;8.230;2023-04-28T09:41:35;9.25;;;4.45;;
80400;SDS011;69727;53.132;8.230;2023-04-28T09:44:17;10.70;;;4.97;;
80400;SDS011;69727;53.132;8.230;2023-04-28T09:46:45;8.75;;;4.43;;
80400;SDS011;69727;53.132;8.230;2023-04-28T09:49:12;10.75;;;5.25;;
80400;SDS011;69727;53.132;8.230;2023-04-28T09:51:38;9.55;;;4.50;;
80400;SDS011;69727;53.132;8.230;2023-04-28T09:54:05;10.98;;;5.00;;
80400;SDS011;69727;53.132;8.230;2023-04-28T09:56:31;7.82;;;4.90;;
80400;SDS011;69727;53.132;8.230;2023-04-28T09:58:59;11.48;;;4.97;;
80400;SDS011;69727;53.132;8.230;2023-04-28T10:01:39;11.85;;;4.75;;
80400;SDS011;69727;53.132;8.230;2023-04-28T10:04:05;10.32;;;4.85;;
80400;SDS011;69727;53.132;8.230;2023-04-28T10:06:33;12.05;;;4.85;;
80400;SDS011;69727;53.132;8.230;2023-04-28T10:09:02;9.77;;;5.30;;
80400;SDS011;69727;53.132;8.230;2023-04-28T10:11:29;12.20;;;5.70;;
80400;SDS011;69727;53.132;8.230;2023-04-28T10:13:54;11.10;;;4.93;;
80400;SDS011;69727;53.132;8.230;2023-04-28T10:16:21;11.48;;;5.10;;
80400;SDS011;69727;53.132;8.230;2023-04-28T10:18:46;8.15;;;4.90;;
80400;SDS011;69727;53.132;8.230;2023-04-28T10:21:14;12.85;;;5.00;;
80400;SDS011;69727;53.132;8.230;2023-04-28T10:27:08;9.35;;;4.85;;
80400;SDS011;69727;53.132;8.230;2023-04-28T10:29:21;9.45;;;5.47;;
80400;SDS011;69727;53.132;8.230;2023-04-28T10:34:50;12.77;;;5.57;;
80400;SDS011;69727;53.132;8.230;2023-04-28T10:37:16;11.05;;;5.70;;
80400;SDS011;69727;53.132;8.230;2023-04-28T10:42:51;10.90;;;5.70;;
80400;SDS011;69727;53.132;8.230;2023-04-28T10:46:08;9.63;;;5.60;;
80400;SDS011;69727;53.132;8.230;2023-04-28T10:56:08;10.07;;;5.43;;
80400;SDS011;69727;53.132;8.230;2023-04-28T10:58:39;9.55;;;5.18;;
80400;SDS011;69727;53.132;8.230;2023-04-28T11:16:52;12.07;;;5.57;;
80400;SDS011;69727;53.132;8.230;2023-04-28T11:19:19;10.00;;;5.90;;
80400;SDS011;69727;53.132;8.230;2023-04-28T11:21:47;10.02;;;5.50;;
80400;SDS011;69727;53.132;8.230;2023-04-28T11:24:13;10.75;;;5.95;;
80400;SDS011;69727;53.132;8.230;2023-04-28T11:26:39;10.93;;;5.78;;
80400;SDS011;69727;53.132;8.230;2023-04-28T11:29:05;13.68;;;6.20;;
80400;SDS011;69727;53.132;8.230;2023-04-28T11:31:32;9.43;;;5.72;;
80400;SDS011;69727;53.132;8.230;2023-04-28T11:36:41;14.02;;;5.85;;
80400;SDS011;69727;53.132;8.230;2023-04-28T11:39:11;11.93;;;6.10;;
80400;SDS011;69727;53.132;8.230;2023-04-28T11:44:13;10.60;;;5.55;;
80400;SDS011;69727;53.132;8.230;2023-04-28T11:47:04;8.88;;;5.72;;
80400;SDS011;69727;53.132;8.230;2023-04-28T11:49:51;11.68;;;6.35;;
80400;SDS011;69727;53.132;8.230;2023-04-28T11:52:15;10.40;;;6.28;;
80400;SDS011;69727;53.132;8.230;2023-04-28T11:54:41;13.00;;;6.23;;
80400;SDS011;69727;53.132;8.230;2023-04-28T11:57:15;10.15;;;5.78;;
80400;SDS011;69727;53.132;8.230;2023-04-28T11:59:45;9.27;;;5.65;;
80400;SDS011;69727;53.132;8.230;2023-04-28T12:02:10;9.73;;;5.85;;
80400;SDS011;69727;53.132;8.230;2023-04-28T12:07:07;12.02;;;6.45;;
80400;SDS011;69727;53.132;8.230;2023-04-28T12:09:40;11.10;;;6.20;;
80400;SDS011;69727;53.132;8.230;2023-04-28T12:12:07;10.27;;;6.40;;
80400;SDS011;69727;53.132;8.230;2023-04-28T12:17:37;15.10;;;6.03;;
80400;SDS011;69727;53.132;8.230;2023-04-28T12:20:04;10.52;;;5.90;;
80400;SDS011;69727;53.132;8.230;2023-04-28T12:22:44;10.65;;;5.80;;
80400;SDS011;69727;53.132;8.230;2023-04-28T12:25:12;11.15;;;6.43;;
80400;SDS011;69727;53.132;8.230;2023-04-28T12:27:41;11.82;;;6.22;;
80400;SDS011;69727;53.132;8.230;2023-04-28T12:32:47;8.97;;;5.67;;
80400;SDS011;69727;53.132;8.230;2023-04-28T12:35:12;10.90;;;5.87;;
80400;SDS011;69727;53.132;8.230;2023-04-28T12:37:38;10.45;;;6.32;;
80400;SDS011;69727;53.132;8.230;2023-04-28T12:40:05;14.10;;;7.00;;
80400;SDS011;69727;53.132;8.230;2023-04-28T12:42:31;10.85;;;6.50;;
80400;SDS011;69727;53.132;8.230;2023-04-28T12:44:57;12.33;;;6.27;;
80400;SDS011;69727;53.132;8.230;2023-04-28T12:47:22;10.10;;;6.20;;
80400;SDS011;69727;53.132;8.230;2023-04-28T12:49:48;12.07;;;6.50;;
80400;SDS011;69727;53.132;8.230;2023-04-28T12:52:16;11.45;;;6.15;;
80400;SDS011;69727;53.132;8.230;2023-04-28T12:54:42;14.20;;;7.28;;
80400;SDS011;69727;53.132;8.230;2023-04-28T12:57:11;14.90;;;7.15;;
80400;SDS011;69727;53.132;8.230;2023-04-28T12:59:37;12.55;;;6.55;;
80400;SDS011;69727;53.132;8.230;2023-04-28T13:02:03;9.70;;;6.60;;
80400;SDS011;69727;53.132;8.230;2023-04-28T13:04:29;12.43;;;7.15;;
80400;SDS011;69727;53.132;8.230;2023-04-28T13:06:56;14.13;;;7.03;;
80400;SDS011;69727;53.132;8.230;2023-04-28T13:09:23;14.23;;;7.53;;
80400;SDS011;69727;53.132;8.230;2023-04-28T13:11:50;11.57;;;7.10;;
80400;SDS011;69727;53.132;8.230;2023-04-28T13:14:17;10.35;;;6.38;;
80400;SDS011;69727;53.132;8.230;2023-04-28T13:16:43;12.35;;;6.88;;
80400;SDS011;69727;53.132;8.230;2023-04-28T13:19:09;11.48;;;6.57;;
80400;SDS011;69727;53.132;8.230;2023-04-28T13:21:37;10.85;;;6.50;;
80400;SDS011;69727;53.132;8.230;2023-04-28T13:24:05;11.43;;;6.75;;
80400;SDS011;69727;53.132;8.230;2023-04-28T13:26:31;12.27;;;6.82;;
80400;SDS011;69727;53.132;8.230;2023-04-28T13:28:57;15.35;;;7.57;;
80400;SDS011;69727;53.132;8.230;2023-04-28T13:31:22;10.38;;;6.95;;
80400;SDS011;69727;53.132;8.230;2023-04-28T13:33:48;11.17;;;6.20;;
80400;SDS011;69727;53.132;8.230;2023-04-28T13:36:13;10.57;;;7.10;;
80400;SDS011;69727;53.132;8.230;2023-04-28T13:38:39;12.32;;;6.72;;
80400;SDS011;69727;53.132;8.230;2023-04-28T13:41:04;12.98;;;6.57;;
80400;SDS011;69727;53.132;8.230;2023-04-28T13:43:30;11.30;;;7.38;;
80400;SDS011;69727;53.132;8.230;2023-04-28T13:45:55;10.97;;;6.93;;
80400;SDS011;69727;53.132;8.230;2023-04-28T13:48:21;10.85;;;7.00;;
80400;SDS011;69727;53.132;8.230;2023-04-28T13:50:46;10.95;;;7.07;;
80400;SDS011;69727;53.132;8.230;2023-04-28T13:53:12;15.37;;;7.57;;
80400;SDS011;69727;53.132;8.230;2023-04-28T13:55:37;13.25;;;7.25;;
80400;SDS011;69727;53.132;8.230;2023-04-28T13:58:04;12.75;;;6.80;;
80400;SDS011;69727;53.132;8.230;2023-04-28T14:00:31;13.90;;;7.75;;
80400;SDS011;69727;53.132;8.230;2023-04-28T14:02:57;16.05;;;7.50;;
80400;SDS011;69727;53.132;8.230;2023-04-28T14:05:24;11.93;;;7.72;;
80400;SDS011;69727;53.132;8.230;2023-04-28T14:07:50;12.13;;;7.25;;
80400;SDS011;69727;53.132;8.230;2023-04-28T14:10:17;16.00;;;8.32;;
80400;SDS011;69727;53.132;8.230;2023-04-28T14:12:42;10.27;;;7.07;;
80400;SDS011;69727;53.132;8.230;2023-04-28T14:15:08;13.03;;;7.50;;
80400;SDS011;69727;53.132;8.230;2023-04-28T14:17:34;12.27;;;8.02;;
80400;SDS011;69727;53.132;8.230;2023-04-28T14:20:01;14.20;;;7.65;;
80400;SDS011;69727;53.132;8.230;2023-04-28T14:22:27;13.35;;;7.50;;
80400;SDS011;69727;53.132;8.230;2023-04-28T14:24:52;13.47;;;7.63;;
80400;SDS011;69727;53.132;8.230;2023-04-28T14:27:18;12.90;;;7.80;;
80400;SDS011;69727;53.132;8.230;2023-04-28T14:29:44;12.23;;;7.50;;
80400;SDS011;69727;53.132;8.230;2023-04-28T14:32:12;11.18;;;7.10;;
80400;SDS011;69727;53.132;8.230;2023-04-28T14:34:38;12.30;;;6.82;;
80400;SDS011;69727;53.132;8.230;2023-04-28T14:37:04;12.18;;;7.82;;
80400;SDS011;69727;53.132;8.230;2023-04-28T14:39:30;12.35;;;7.40;;
80400;SDS011;69727;53.132;8.230;2023-04-28T14:41:55;12.43;;;8.07;;
80400;SDS011;69727;53.132;8.230;2023-04-28T14:44:21;13.65;;;8.75;;
80400;SDS011;69727;53.132;8.230;2023-04-28T14:46:46;13.13;;;8.10;;
80400;SDS011;69727;53.132;8.230;2023-04-28T14:49:12;15.13;;;8.27;;
80400;SDS011;69727;53.132;8.230;2023-04-28T14:51:38;11.35;;;7.30;;
80400;SDS011;69727;53.132;8.230;2023-04-28T14:54:03;14.25;;;8.27;;
80400;SDS011;69727;53.132;8.230;2023-04-28T14:56:29;13.90;;;8.00;;
80400;SDS011;69727;53.132;8.230;2023-04-28T14:58:54;13.60;;;8.60;;
80400;SDS011;69727;53.132;8.230;2023-04-28T15:01:19;14.63;;;8.57;;
80400;SDS011;69727;53.132;8.230;2023-04-28T15:03:45;16.83;;;9.80;;
80400;SDS011;69727;53.132;8.230;2023-04-28T15:06:11;17.42;;;10.23;;
80400;SDS011;69727;53.132;8.230;2023-04-28T15:08:37;17.38;;;10.45;;
80400;SDS011;69727;53.132;8.230;2023-04-28T15:11:04;18.83;;;10.68;;
80400;SDS011;69727;53.132;8.230;2023-04-28T15:13:30;21.88;;;13.15;;
80400;SDS011;69727;53.132;8.230;2023-04-28T15:15:56;22.45;;;12.93;;
80400;SDS011;69727;53.132;8.230;2023-04-28T15:18:22;21.50;;;13.20;;
80400;SDS011;69727;53.132;8.230;2023-04-28T15:20:47;21.05;;;11.48;;
80400;SDS011;69727;53.132;8.230;2023-04-28T15:23:13;17.60;;;10.98;;